sensor_id;sensor_type;location;lat;lon;timestamp;temperature;humidity
14095;DHT22;18096;48.142;16.290;2023-03-25T00:00:17;14.40;91.50
14095;DHT22;18096;48.142;16.290;2023-03-25T00:02:44;14.40;91.40
14095;DHT22;18096;48.142;16.290;2023-03-25T00:05:13;14.40;91.30
14095;DHT22;18096;48.142;16.290;2023-03-25T00:07:43;14.30;91.20
14095;DHT22;18096;48.142;16.290;2023-03-25T00:10:10;14.30;91.20
14095;DHT22;18096;48.142;16.290;2023-03-25T00:12:36;14.20;91.30
14095;DHT22;18096;48.142;16.290;2023-03-25T00:15:03;14.20;91.30
14095;DHT22;18096;48.142;16.290;2023-03-25T00:17:30;14.20;91.30
14095;DHT22;18096;48.142;16.290;2023-03-25T00:19:57;14.20;91.30
14095;DHT22;18096;48.142;16.290;2023-03-25T00:22:25;14.20;91.20
14095;DHT22;18096;48.142;16.290;2023-03-25T00:24:51;14.10;91.20
14095;DHT22;18096;48.142;16.290;2023-03-25T00:27:17;14.10;91.10
14095;DHT22;18096;48.142;16.290;2023-03-25T00:29:44;14.00;90.90
14095;DHT22;18096;48.142;16.290;2023-03-25T00:32:12;14.00;91.00
14095;DHT22;18096;48.142;16.290;2023-03-25T00:34:37;14.00;91.10
14095;DHT22;18096;48.142;16.290;2023-03-25T00:37:09;14.00;91.00
14095;DHT22;18096;48.142;16.290;2023-03-25T00:39:36;14.00;91.00
14095;DHT22;18096;48.142;16.290;2023-03-25T00:42:02;14.00;91.00
14095;DHT22;18096;48.142;16.290;2023-03-25T00:44:28;13.90;90.80
14095;DHT22;18096;48.142;16.290;2023-03-25T00:46:55;13.90;90.80
14095;DHT22;18096;48.142;16.290;2023-03-25T00:49:21;14.00;90.80
14095;DHT22;18096;48.142;16.290;2023-03-25T00:51:50;14.00;90.70
14095;DHT22;18096;48.142;16.290;2023-03-25T00:54:16;14.00;90.60
14095;DHT22;18096;48.142;16.290;2023-03-25T00:56:42;14.00;90.50
14095;DHT22;18096;48.142;16.290;2023-03-25T00:59:09;14.00;90.60
14095;DHT22;18096;48.142;16.290;2023-03-25T01:01:35;14.00;90.40
14095;DHT22;18096;48.142;16.290;2023-03-25T01:04:04;13.90;90.30
14095;DHT22;18096;48.142;16.290;2023-03-25T01:06:37;13.90;90.60
14095;DHT22;18096;48.142;16.290;2023-03-25T01:09:07;13.90;90.40
14095;DHT22;18096;48.142;16.290;2023-03-25T01:11:35;14.00;90.30
14095;DHT22;18096;48.142;16.290;2023-03-25T01:14:05;14.00;90.20
14095;DHT22;18096;48.142;16.290;2023-03-25T01:16:31;13.90;90.20
14095;DHT22;18096;48.142;16.290;2023-03-25T01:18:56;14.00;90.20
14095;DHT22;18096;48.142;16.290;2023-03-25T01:21:22;14.00;90.10
14095;DHT22;18096;48.142;16.290;2023-03-25T01:23:48;14.00;90.20
14095;DHT22;18096;48.142;16.290;2023-03-25T01:26:14;14.00;90.30
14095;DHT22;18096;48.142;16.290;2023-03-25T01:28:43;13.90;90.20
14095;DHT22;18096;48.142;16.290;2023-03-25T01:31:11;13.90;90.20
14095;DHT22;18096;48.142;16.290;2023-03-25T01:33:37;13.90;90.30
14095;DHT22;18096;48.142;16.290;2023-03-25T01:36:04;13.90;90.20
14095;DHT22;18096;48.142;16.290;2023-03-25T01:38:34;13.80;90.30
14095;DHT22;18096;48.142;16.290;2023-03-25T01:41:01;13.80;90.30
14095;DHT22;18096;48.142;16.290;2023-03-25T01:43:29;13.80;90.30
14095;DHT22;18096;48.142;16.290;2023-03-25T01:45:54;13.80;90.40
14095;DHT22;18096;48.142;16.290;2023-03-25T01:48:24;13.80;90.30
14095;DHT22;18096;48.142;16.290;2023-03-25T01:50:56;13.80;90.30
14095;DHT22;18096;48.142;16.290;2023-03-25T01:53:26;13.80;90.30
14095;DHT22;18096;48.142;16.290;2023-03-25T01:55:52;13.70;90.30
14095;DHT22;18096;48.142;16.290;2023-03-25T01:58:20;13.80;90.40
14095;DHT22;18096;48.142;16.290;2023-03-25T02:00:48;13.80;90.30
14095;DHT22;18096;48.142;16.290;2023-03-25T02:03:17;13.80;90.40
14095;DHT22;18096;48.142;16.290;2023-03-25T02:06:03;13.80;90.40
14095;DHT22;18096;48.142;16.290;2023-03-25T02:08:32;13.80;90.40
14095;DHT22;18096;48.142;16.290;2023-03-25T02:11:02;13.80;90.40
14095;DHT22;18096;48.142;16.290;2023-03-25T02:13:28;13.80;90.40
14095;DHT22;18096;48.142;16.290;2023-03-25T02:27:37;13.80;90.60
14095;DHT22;18096;48.142;16.290;2023-03-25T02:42:03;13.80;90.70
14095;DHT22;18096;48.142;16.290;2023-03-25T02:44:43;13.70;90.80
14095;DHT22;18096;48.142;16.290;2023-03-25T02:47:17;13.60;91.20
14095;DHT22;18096;48.142;16.290;2023-03-25T02:50:06;13.60;90.90
14095;DHT22;18096;48.142;16.290;2023-03-25T02:52:38;13.70;91.00
14095;DHT22;18096;48.142;16.290;2023-03-25T02:55:06;13.60;91.10
14095;DHT22;18096;48.142;16.290;2023-03-25T02:57:39;13.60;91.20
14095;DHT22;18096;48.142;16.290;2023-03-25T03:00:06;13.70;91.50
14095;DHT22;18096;48.142;16.290;2023-03-25T03:02:43;13.60;91.20
14095;DHT22;18096;48.142;16.290;2023-03-25T03:05:31;13.70;91.20
14095;DHT22;18096;48.142;16.290;2023-03-25T03:16:46;13.60;91.40
14095;DHT22;18096;48.142;16.290;2023-03-25T03:24:48;13.60;91.40
14095;DHT22;18096;48.142;16.290;2023-03-25T03:27:35;13.50;91.40
14095;DHT22;18096;48.142;16.290;2023-03-25T03:32:41;13.50;91.30
14095;DHT22;18096;48.142;16.290;2023-03-25T03:35:17;13.50;91.40
14095;DHT22;18096;48.142;16.290;2023-03-25T03:37:50;13.50;91.30
14095;DHT22;18096;48.142;16.290;2023-03-25T03:40:20;13.50;91.40
14095;DHT22;18096;48.142;16.290;2023-03-25T03:43:02;13.50;91.30
14095;DHT22;18096;48.142;16.290;2023-03-25T03:45:47;13.50;91.50
14095;DHT22;18096;48.142;16.290;2023-03-25T03:48:27;13.50;91.40
14095;DHT22;18096;48.142;16.290;2023-03-25T03:50:57;13.50;91.50
14095;DHT22;18096;48.142;16.290;2023-03-25T03:53:48;13.50;91.40
14095;DHT22;18096;48.142;16.290;2023-03-25T03:56:27;13.50;91.40
14095;DHT22;18096;48.142;16.290;2023-03-25T03:58:57;13.50;91.40
14095;DHT22;18096;48.142;16.290;2023-03-25T04:01:38;13.40;91.30
14095;DHT22;18096;48.142;16.290;2023-03-25T04:04:13;13.40;91.40
14095;DHT22;18096;48.142;16.290;2023-03-25T04:12:42;13.40;91.40
14095;DHT22;18096;48.142;16.290;2023-03-25T04:15:10;13.30;91.40
14095;DHT22;18096;48.142;16.290;2023-03-25T04:17:36;13.30;91.50
14095;DHT22;18096;48.142;16.290;2023-03-25T04:20:02;13.30;91.50
14095;DHT22;18096;48.142;16.290;2023-03-25T04:22:33;13.30;91.60
14095;DHT22;18096;48.142;16.290;2023-03-25T04:25:04;13.30;91.60
14095;DHT22;18096;48.142;16.290;2023-03-25T04:27:30;13.30;91.50
14095;DHT22;18096;48.142;16.290;2023-03-25T04:29:57;13.20;91.50
14095;DHT22;18096;48.142;16.290;2023-03-25T04:32:26;13.20;91.60
14095;DHT22;18096;48.142;16.290;2023-03-25T04:34:53;13.20;91.60
14095;DHT22;18096;48.142;16.290;2023-03-25T04:37:26;13.20;91.60
14095;DHT22;18096;48.142;16.290;2023-03-25T04:39:52;13.20;91.70
14095;DHT22;18096;48.142;16.290;2023-03-25T04:42:23;13.20;91.70
14095;DHT22;18096;48.142;16.290;2023-03-25T04:44:51;13.10;91.70
14095;DHT22;18096;48.142;16.290;2023-03-25T04:47:20;13.10;91.60
14095;DHT22;18096;48.142;16.290;2023-03-25T04:49:47;13.10;91.60
14095;DHT22;18096;48.142;16.290;2023-03-25T04:52:13;13.10;91.60
14095;DHT22;18096;48.142;16.290;2023-03-25T04:54:40;13.10;91.60
14095;DHT22;18096;48.142;16.290;2023-03-25T04:57:06;13.10;91.60
14095;DHT22;18096;48.142;16.290;2023-03-25T04:59:35;13.10;91.60
14095;DHT22;18096;48.142;16.290;2023-03-25T05:02:02;13.10;91.50
14095;DHT22;18096;48.142;16.290;2023-03-25T05:04:30;13.10;91.40
14095;DHT22;18096;48.142;16.290;2023-03-25T05:06:56;13.10;91.40
14095;DHT22;18096;48.142;16.290;2023-03-25T05:09:22;13.00;91.40
14095;DHT22;18096;48.142;16.290;2023-03-25T05:11:49;13.00;91.40
14095;DHT22;18096;48.142;16.290;2023-03-25T05:14:17;13.00;91.30
14095;DHT22;18096;48.142;16.290;2023-03-25T05:16:44;13.00;91.30
14095;DHT22;18096;48.142;16.290;2023-03-25T05:19:10;13.00;91.30
14095;DHT22;18096;48.142;16.290;2023-03-25T05:21:38;13.00;91.20
14095;DHT22;18096;48.142;16.290;2023-03-25T05:24:08;12.90;91.20
14095;DHT22;18096;48.142;16.290;2023-03-25T05:26:35;12.90;91.30
14095;DHT22;18096;48.142;16.290;2023-03-25T05:29:03;12.90;91.30
14095;DHT22;18096;48.142;16.290;2023-03-25T05:31:29;12.90;91.30
14095;DHT22;18096;48.142;16.290;2023-03-25T05:33:55;12.90;91.30
14095;DHT22;18096;48.142;16.290;2023-03-25T05:36:21;12.90;91.30
14095;DHT22;18096;48.142;16.290;2023-03-25T05:38:50;12.90;91.30
14095;DHT22;18096;48.142;16.290;2023-03-25T05:41:20;12.90;91.50
14095;DHT22;18096;48.142;16.290;2023-03-25T05:43:47;12.90;91.20
14095;DHT22;18096;48.142;16.290;2023-03-25T05:46:18;13.00;91.10
14095;DHT22;18096;48.142;16.290;2023-03-25T05:48:44;13.00;91.00
14095;DHT22;18096;48.142;16.290;2023-03-25T05:51:16;13.00;90.90
14095;DHT22;18096;48.142;16.290;2023-03-25T05:53:43;13.00;90.70
14095;DHT22;18096;48.142;16.290;2023-03-25T05:56:10;13.00;90.70
14095;DHT22;18096;48.142;16.290;2023-03-25T05:58:36;13.00;90.60
14095;DHT22;18096;48.142;16.290;2023-03-25T06:01:03;13.00;90.60
14095;DHT22;18096;48.142;16.290;2023-03-25T06:03:29;13.00;90.60
14095;DHT22;18096;48.142;16.290;2023-03-25T06:05:55;13.00;90.30
14095;DHT22;18096;48.142;16.290;2023-03-25T06:08:21;13.00;90.30
14095;DHT22;18096;48.142;16.290;2023-03-25T06:10:57;13.00;90.30
14095;DHT22;18096;48.142;16.290;2023-03-25T06:13:26;13.00;90.30
14095;DHT22;18096;48.142;16.290;2023-03-25T06:15:52;13.00;90.30
14095;DHT22;18096;48.142;16.290;2023-03-25T06:18:24;13.10;90.20
14095;DHT22;18096;48.142;16.290;2023-03-25T06:20:52;13.10;90.00
14095;DHT22;18096;48.142;16.290;2023-03-25T06:23:22;13.10;89.90
14095;DHT22;18096;48.142;16.290;2023-03-25T06:25:49;13.10;90.00
14095;DHT22;18096;48.142;16.290;2023-03-25T06:28:16;13.10;90.00
14095;DHT22;18096;48.142;16.290;2023-03-25T06:30:46;13.10;90.00
14095;DHT22;18096;48.142;16.290;2023-03-25T06:33:14;13.00;90.00
14095;DHT22;18096;48.142;16.290;2023-03-25T06:35:46;13.10;89.80
14095;DHT22;18096;48.142;16.290;2023-03-25T06:38:14;13.10;89.60
14095;DHT22;18096;48.142;16.290;2023-03-25T06:40:40;13.10;89.30
14095;DHT22;18096;48.142;16.290;2023-03-25T06:43:06;13.10;89.10
14095;DHT22;18096;48.142;16.290;2023-03-25T06:45:32;13.10;88.80
14095;DHT22;18096;48.142;16.290;2023-03-25T06:47:58;13.10;88.90
14095;DHT22;18096;48.142;16.290;2023-03-25T06:50:24;13.10;88.70
14095;DHT22;18096;48.142;16.290;2023-03-25T06:52:50;13.10;88.50
14095;DHT22;18096;48.142;16.290;2023-03-25T06:55:15;13.10;88.50
14095;DHT22;18096;48.142;16.290;2023-03-25T06:57:41;13.10;88.40
14095;DHT22;18096;48.142;16.290;2023-03-25T07:00:08;13.20;87.90
14095;DHT22;18096;48.142;16.290;2023-03-25T07:02:36;13.10;87.70
14095;DHT22;18096;48.142;16.290;2023-03-25T07:05:03;13.20;87.80
14095;DHT22;18096;48.142;16.290;2023-03-25T07:07:29;13.20;87.70
14095;DHT22;18096;48.142;16.290;2023-03-25T07:09:55;13.20;87.20
14095;DHT22;18096;48.142;16.290;2023-03-25T07:12:21;13.20;86.80
14095;DHT22;18096;48.142;16.290;2023-03-25T07:14:54;13.20;86.60
14095;DHT22;18096;48.142;16.290;2023-03-25T07:17:20;13.20;86.20
14095;DHT22;18096;48.142;16.290;2023-03-25T07:19:47;13.20;85.90
14095;DHT22;18096;48.142;16.290;2023-03-25T07:22:13;13.20;85.70
14095;DHT22;18096;48.142;16.290;2023-03-25T07:24:38;13.20;85.70
14095;DHT22;18096;48.142;16.290;2023-03-25T07:27:04;13.20;85.50
14095;DHT22;18096;48.142;16.290;2023-03-25T07:29:30;13.30;85.10
14095;DHT22;18096;48.142;16.290;2023-03-25T07:31:56;13.30;84.40
14095;DHT22;18096;48.142;16.290;2023-03-25T07:34:21;13.30;83.90
14095;DHT22;18096;48.142;16.290;2023-03-25T07:36:47;13.30;83.90
14095;DHT22;18096;48.142;16.290;2023-03-25T07:39:13;13.40;83.30
14095;DHT22;18096;48.142;16.290;2023-03-25T07:41:38;13.40;83.00
14095;DHT22;18096;48.142;16.290;2023-03-25T07:44:04;13.50;82.90
14095;DHT22;18096;48.142;16.290;2023-03-25T07:46:30;13.50;83.00
14095;DHT22;18096;48.142;16.290;2023-03-25T07:48:56;13.50;82.50
14095;DHT22;18096;48.142;16.290;2023-03-25T07:51:21;13.60;81.90
14095;DHT22;18096;48.142;16.290;2023-03-25T07:53:47;13.60;81.30
14095;DHT22;18096;48.142;16.290;2023-03-25T07:56:13;13.60;80.60
14095;DHT22;18096;48.142;16.290;2023-03-25T07:58:40;13.60;80.50
14095;DHT22;18096;48.142;16.290;2023-03-25T08:01:06;13.60;80.10
14095;DHT22;18096;48.142;16.290;2023-03-25T08:03:32;13.60;80.00
14095;DHT22;18096;48.142;16.290;2023-03-25T08:06:00;13.60;80.00
14095;DHT22;18096;48.142;16.290;2023-03-25T08:08:26;13.70;80.30
14095;DHT22;18096;48.142;16.290;2023-03-25T08:10:54;13.70;80.60
14095;DHT22;18096;48.142;16.290;2023-03-25T08:13:21;13.70;79.70
14095;DHT22;18096;48.142;16.290;2023-03-25T08:15:47;13.70;79.60
14095;DHT22;18096;48.142;16.290;2023-03-25T08:18:13;13.70;78.80
14095;DHT22;18096;48.142;16.290;2023-03-25T08:20:38;13.70;79.00
14095;DHT22;18096;48.142;16.290;2023-03-25T08:23:04;13.70;79.10
14095;DHT22;18096;48.142;16.290;2023-03-25T08:25:37;13.70;79.00
14095;DHT22;18096;48.142;16.290;2023-03-25T08:28:04;13.70;79.00
14095;DHT22;18096;48.142;16.290;2023-03-25T08:30:31;13.70;78.50
14095;DHT22;18096;48.142;16.290;2023-03-25T08:33:04;13.70;78.30
14095;DHT22;18096;48.142;16.290;2023-03-25T08:35:32;13.70;78.60
14095;DHT22;18096;48.142;16.290;2023-03-25T08:37:58;13.80;78.50
14095;DHT22;18096;48.142;16.290;2023-03-25T08:40:26;13.80;78.60
14095;DHT22;18096;48.142;16.290;2023-03-25T08:42:52;13.90;78.50
14095;DHT22;18096;48.142;16.290;2023-03-25T08:45:18;13.90;78.40
14095;DHT22;18096;48.142;16.290;2023-03-25T08:47:44;13.90;78.00
14095;DHT22;18096;48.142;16.290;2023-03-25T08:50:11;13.80;78.10
14095;DHT22;18096;48.142;16.290;2023-03-25T08:52:37;13.80;78.10
14095;DHT22;18096;48.142;16.290;2023-03-25T08:55:04;13.80;78.60
14095;DHT22;18096;48.142;16.290;2023-03-25T08:57:34;13.80;78.60
14095;DHT22;18096;48.142;16.290;2023-03-25T09:00:01;13.90;78.70
14095;DHT22;18096;48.142;16.290;2023-03-25T09:02:26;13.90;78.40
14095;DHT22;18096;48.142;16.290;2023-03-25T09:04:52;13.90;78.10
14095;DHT22;18096;48.142;16.290;2023-03-25T09:07:18;13.90;78.10
14095;DHT22;18096;48.142;16.290;2023-03-25T09:09:45;13.90;77.80
14095;DHT22;18096;48.142;16.290;2023-03-25T09:12:11;13.90;77.70
14095;DHT22;18096;48.142;16.290;2023-03-25T09:14:37;13.80;77.00
14095;DHT22;18096;48.142;16.290;2023-03-25T09:17:03;13.80;77.20
14095;DHT22;18096;48.142;16.290;2023-03-25T09:19:32;13.80;77.40
14095;DHT22;18096;48.142;16.290;2023-03-25T09:21:58;13.90;77.20
14095;DHT22;18096;48.142;16.290;2023-03-25T09:24:23;13.90;76.80
14095;DHT22;18096;48.142;16.290;2023-03-25T09:26:51;14.00;76.50
14095;DHT22;18096;48.142;16.290;2023-03-25T09:29:17;14.00;75.80
14095;DHT22;18096;48.142;16.290;2023-03-25T09:31:42;14.00;75.40
14095;DHT22;18096;48.142;16.290;2023-03-25T09:34:08;14.00;74.80
14095;DHT22;18096;48.142;16.290;2023-03-25T09:36:33;14.00;74.70
14095;DHT22;18096;48.142;16.290;2023-03-25T09:38:59;14.00;74.50
14095;DHT22;18096;48.142;16.290;2023-03-25T09:41:31;14.00;74.20
14095;DHT22;18096;48.142;16.290;2023-03-25T09:46:51;14.00;73.90
14095;DHT22;18096;48.142;16.290;2023-03-25T09:49:36;14.10;74.10
14095;DHT22;18096;48.142;16.290;2023-03-25T09:52:04;14.10;73.50
14095;DHT22;18096;48.142;16.290;2023-03-25T09:54:36;14.10;73.50
14095;DHT22;18096;48.142;16.290;2023-03-25T09:57:10;14.20;73.50
14095;DHT22;18096;48.142;16.290;2023-03-25T10:08:31;14.30;72.50
14095;DHT22;18096;48.142;16.290;2023-03-25T10:14:05;14.30;73.20
14095;DHT22;18096;48.142;16.290;2023-03-25T10:22:02;14.50;82.40
14095;DHT22;18096;48.142;16.290;2023-03-25T10:27:38;14.70;73.20
14095;DHT22;18096;48.142;16.290;2023-03-25T10:30:23;14.80;72.20
14095;DHT22;18096;48.142;16.290;2023-03-25T10:32:56;14.80;72.00
14095;DHT22;18096;48.142;16.290;2023-03-25T10:35:29;14.80;71.50
14095;DHT22;18096;48.142;16.290;2023-03-25T10:38:20;14.80;71.50
14095;DHT22;18096;48.142;16.290;2023-03-25T10:43:53;14.80;68.60
14095;DHT22;18096;48.142;16.290;2023-03-25T10:46:29;14.80;68.40
14095;DHT22;18096;48.142;16.290;2023-03-25T10:48:56;14.70;68.00
14095;DHT22;18096;48.142;16.290;2023-03-25T10:51:31;14.70;68.00
14095;DHT22;18096;48.142;16.290;2023-03-25T10:53:58;14.70;67.80
14095;DHT22;18096;48.142;16.290;2023-03-25T10:56:30;14.70;67.50
14095;DHT22;18096;48.142;16.290;2023-03-25T10:58:59;14.60;67.10
14095;DHT22;18096;48.142;16.290;2023-03-25T11:01:40;14.60;66.90
14095;DHT22;18096;48.142;16.290;2023-03-25T11:04:13;14.50;66.50
14095;DHT22;18096;48.142;16.290;2023-03-25T11:06:43;14.40;66.80
14095;DHT22;18096;48.142;16.290;2023-03-25T11:09:14;14.50;66.10
14095;DHT22;18096;48.142;16.290;2023-03-25T11:11:43;14.50;65.80
14095;DHT22;18096;48.142;16.290;2023-03-25T11:14:12;14.60;65.60
14095;DHT22;18096;48.142;16.290;2023-03-25T11:16:53;14.60;65.10
14095;DHT22;18096;48.142;16.290;2023-03-25T11:19:27;14.70;64.20
14095;DHT22;18096;48.142;16.290;2023-03-25T11:22:09;14.80;64.10
14095;DHT22;18096;48.142;16.290;2023-03-25T11:24:41;14.80;64.10
14095;DHT22;18096;48.142;16.290;2023-03-25T11:27:08;14.80;64.00
14095;DHT22;18096;48.142;16.290;2023-03-25T11:29:35;14.90;63.80
14095;DHT22;18096;48.142;16.290;2023-03-25T11:32:12;14.90;63.80
14095;DHT22;18096;48.142;16.290;2023-03-25T11:34:38;14.90;64.10
14095;DHT22;18096;48.142;16.290;2023-03-25T11:37:27;15.00;64.00
14095;DHT22;18096;48.142;16.290;2023-03-25T11:39:54;15.10;63.70
14095;DHT22;18096;48.142;16.290;2023-03-25T11:42:27;15.20;63.90
14095;DHT22;18096;48.142;16.290;2023-03-25T11:44:56;15.20;63.60
14095;DHT22;18096;48.142;16.290;2023-03-25T11:47:35;15.30;64.30
14095;DHT22;18096;48.142;16.290;2023-03-25T11:50:02;15.30;63.10
14095;DHT22;18096;48.142;16.290;2023-03-25T11:52:40;15.40;63.20
14095;DHT22;18096;48.142;16.290;2023-03-25T11:55:40;15.50;62.20
14095;DHT22;18096;48.142;16.290;2023-03-25T11:58:02;15.50;62.00
14095;DHT22;18096;48.142;16.290;2023-03-25T12:00:37;15.50;61.20
14095;DHT22;18096;48.142;16.290;2023-03-25T12:03:14;15.50;60.80
14095;DHT22;18096;48.142;16.290;2023-03-25T12:05:56;15.50;61.00
14095;DHT22;18096;48.142;16.290;2023-03-25T12:08:22;15.30;61.00
14095;DHT22;18096;48.142;16.290;2023-03-25T12:10:54;15.30;61.40
14095;DHT22;18096;48.142;16.290;2023-03-25T12:13:28;15.30;61.30
14095;DHT22;18096;48.142;16.290;2023-03-25T12:27:09;15.70;60.50
14095;DHT22;18096;48.142;16.290;2023-03-25T12:32:47;15.80;60.00
14095;DHT22;18096;48.142;16.290;2023-03-25T12:35:27;15.80;59.10
14095;DHT22;18096;48.142;16.290;2023-03-25T12:41:11;15.80;56.20
14095;DHT22;18096;48.142;16.290;2023-03-25T12:46:50;15.80;55.70
14095;DHT22;18096;48.142;16.290;2023-03-25T12:52:39;16.00;56.00
14095;DHT22;18096;48.142;16.290;2023-03-25T13:08:46;16.20;52.90
14095;DHT22;18096;48.142;16.290;2023-03-25T13:11:20;16.40;52.90
14095;DHT22;18096;48.142;16.290;2023-03-25T13:13:49;16.40;52.70
14095;DHT22;18096;48.142;16.290;2023-03-25T13:16:20;16.50;52.90
14095;DHT22;18096;48.142;16.290;2023-03-25T13:19:06;16.50;52.00
14095;DHT22;18096;48.142;16.290;2023-03-25T13:21:40;16.50;51.10
14095;DHT22;18096;48.142;16.290;2023-03-25T13:26:56;16.40;49.90
14095;DHT22;18096;48.142;16.290;2023-03-25T13:29:37;16.30;50.00
14095;DHT22;18096;48.142;16.290;2023-03-25T13:32:23;16.40;50.00
14095;DHT22;18096;48.142;16.290;2023-03-25T13:35:01;16.40;49.60
14095;DHT22;18096;48.142;16.290;2023-03-25T13:37:39;16.40;49.20
14095;DHT22;18096;48.142;16.290;2023-03-25T13:40:26;16.40;49.30
14095;DHT22;18096;48.142;16.290;2023-03-25T13:45:23;16.50;49.60
14095;DHT22;18096;48.142;16.290;2023-03-25T13:48:16;16.50;49.80
14095;DHT22;18096;48.142;16.290;2023-03-25T13:50:43;16.50;49.80
14095;DHT22;18096;48.142;16.290;2023-03-25T13:53:16;16.50;49.00
14095;DHT22;18096;48.142;16.290;2023-03-25T13:55:57;16.60;49.70
14095;DHT22;18096;48.142;16.290;2023-03-25T14:04:05;16.70;50.30
14095;DHT22;18096;48.142;16.290;2023-03-25T14:06:40;16.70;49.80
14095;DHT22;18096;48.142;16.290;2023-03-25T14:12:09;16.70;49.20
14095;DHT22;18096;48.142;16.290;2023-03-25T14:14:46;16.80;48.70
14095;DHT22;18096;48.142;16.290;2023-03-25T14:17:15;16.70;48.90
14095;DHT22;18096;48.142;16.290;2023-03-25T14:19:50;16.70;48.30
14095;DHT22;18096;48.142;16.290;2023-03-25T14:22:28;16.80;48.20
14095;DHT22;18096;48.142;16.290;2023-03-25T14:24:56;16.80;47.10
14095;DHT22;18096;48.142;16.290;2023-03-25T14:27:33;16.70;48.00
14095;DHT22;18096;48.142;16.290;2023-03-25T14:30:28;16.70;48.10
14095;DHT22;18096;48.142;16.290;2023-03-25T14:32:55;16.70;48.00
14095;DHT22;18096;48.142;16.290;2023-03-25T14:43:37;16.40;48.80
14095;DHT22;18096;48.142;16.290;2023-03-25T14:54:01;16.20;49.80
14095;DHT22;18096;48.142;16.290;2023-03-25T14:56:35;16.20;50.60
14095;DHT22;18096;48.142;16.290;2023-03-25T14:59:08;16.10;50.30
14095;DHT22;18096;48.142;16.290;2023-03-25T15:01:37;16.10;50.20
14095;DHT22;18096;48.142;16.290;2023-03-25T15:04:32;16.10;50.80
14095;DHT22;18096;48.142;16.290;2023-03-25T15:07:00;16.00;50.80
14095;DHT22;18096;48.142;16.290;2023-03-25T15:09:26;16.00;50.80
14095;DHT22;18096;48.142;16.290;2023-03-25T15:12:04;15.90;50.70
14095;DHT22;18096;48.142;16.290;2023-03-25T15:14:36;15.80;50.80
14095;DHT22;18096;48.142;16.290;2023-03-25T15:17:09;15.80;51.10
14095;DHT22;18096;48.142;16.290;2023-03-25T15:20:10;15.80;51.70
14095;DHT22;18096;48.142;16.290;2023-03-25T15:22:37;15.80;52.00
14095;DHT22;18096;48.142;16.290;2023-03-25T15:25:17;15.90;52.50
14095;DHT22;18096;48.142;16.290;2023-03-25T15:28:02;15.90;52.20
14095;DHT22;18096;48.142;16.290;2023-03-25T15:39:00;16.00;52.30
14095;DHT22;18096;48.142;16.290;2023-03-25T15:44:42;15.90;52.60
14095;DHT22;18096;48.142;16.290;2023-03-25T15:55:58;15.80;52.80
14095;DHT22;18096;48.142;16.290;2023-03-25T15:59:11;15.80;53.00
14095;DHT22;18096;48.142;16.290;2023-03-25T16:01:26;15.80;52.90
14095;DHT22;18096;48.142;16.290;2023-03-25T16:03:59;15.80;52.70
14095;DHT22;18096;48.142;16.290;2023-03-25T16:06:26;15.70;52.70
14095;DHT22;18096;48.142;16.290;2023-03-25T16:08:54;15.70;52.80
14095;DHT22;18096;48.142;16.290;2023-03-25T16:11:24;15.60;53.00
14095;DHT22;18096;48.142;16.290;2023-03-25T16:14:11;15.60;53.30
14095;DHT22;18096;48.142;16.290;2023-03-25T16:16:58;15.50;53.60
14095;DHT22;18096;48.142;16.290;2023-03-25T16:19:36;15.40;53.90
14095;DHT22;18096;48.142;16.290;2023-03-25T16:22:15;15.40;54.30
14095;DHT22;18096;48.142;16.290;2023-03-25T16:24:42;15.30;55.00
14095;DHT22;18096;48.142;16.290;2023-03-25T16:27:22;15.20;54.70
14095;DHT22;18096;48.142;16.290;2023-03-25T16:29:49;15.20;55.10
14095;DHT22;18096;48.142;16.290;2023-03-25T16:32:20;15.10;55.10
14095;DHT22;18096;48.142;16.290;2023-03-25T16:34:46;15.00;55.40
14095;DHT22;18096;48.142;16.290;2023-03-25T16:37:12;14.90;55.30
14095;DHT22;18096;48.142;16.290;2023-03-25T16:39:39;14.90;55.10
14095;DHT22;18096;48.142;16.290;2023-03-25T16:42:16;14.80;55.50
14095;DHT22;18096;48.142;16.290;2023-03-25T16:44:42;14.80;56.00
14095;DHT22;18096;48.142;16.290;2023-03-25T16:47:11;14.60;56.30
14095;DHT22;18096;48.142;16.290;2023-03-25T16:49:37;14.60;61.80
14095;DHT22;18096;48.142;16.290;2023-03-25T16:52:09;14.40;66.70
14095;DHT22;18096;48.142;16.290;2023-03-25T16:57:27;13.60;71.30
14095;DHT22;18096;48.142;16.290;2023-03-25T16:59:55;13.30;72.10
14095;DHT22;18096;48.142;16.290;2023-03-25T17:04:51;12.90;73.20
14095;DHT22;18096;48.142;16.290;2023-03-25T17:07:26;12.80;74.10
14095;DHT22;18096;48.142;16.290;2023-03-25T17:09:57;12.80;74.40
14095;DHT22;18096;48.142;16.290;2023-03-25T17:12:24;12.60;76.20
14095;DHT22;18096;48.142;16.290;2023-03-25T17:14:55;12.40;77.60
14095;DHT22;18096;48.142;16.290;2023-03-25T17:17:26;12.10;78.60
14095;DHT22;18096;48.142;16.290;2023-03-25T17:20:00;11.80;79.60
14095;DHT22;18096;48.142;16.290;2023-03-25T17:22:36;11.60;80.50
14095;DHT22;18096;48.142;16.290;2023-03-25T17:25:26;11.50;81.30
14095;DHT22;18096;48.142;16.290;2023-03-25T17:27:58;11.40;82.80
14095;DHT22;18096;48.142;16.290;2023-03-25T17:30:44;11.20;83.30
14095;DHT22;18096;48.142;16.290;2023-03-25T17:33:18;11.20;84.30
14095;DHT22;18096;48.142;16.290;2023-03-25T17:35:51;11.20;85.10
14095;DHT22;18096;48.142;16.290;2023-03-25T17:38:59;11.20;85.80
14095;DHT22;18096;48.142;16.290;2023-03-25T17:41:19;11.20;86.30
14095;DHT22;18096;48.142;16.290;2023-03-25T17:43:51;11.20;87.80
14095;DHT22;18096;48.142;16.290;2023-03-25T17:46:21;11.20;88.30
14095;DHT22;18096;48.142;16.290;2023-03-25T17:48:49;11.20;88.40
14095;DHT22;18096;48.142;16.290;2023-03-25T17:51:18;11.20;88.40
14095;DHT22;18096;48.142;16.290;2023-03-25T17:53:45;11.20;89.00
14095;DHT22;18096;48.142;16.290;2023-03-25T17:56:12;11.30;89.70
14095;DHT22;18096;48.142;16.290;2023-03-25T17:58:42;11.30;90.10
14095;DHT22;18096;48.142;16.290;2023-03-25T18:01:12;11.30;90.50
14095;DHT22;18096;48.142;16.290;2023-03-25T18:03:38;11.40;90.70
14095;DHT22;18096;48.142;16.290;2023-03-25T18:06:06;11.30;90.90
14095;DHT22;18096;48.142;16.290;2023-03-25T18:08:32;11.30;91.10
14095;DHT22;18096;48.142;16.290;2023-03-25T18:10:59;11.30;91.20
14095;DHT22;18096;48.142;16.290;2023-03-25T18:13:26;11.20;91.00
14095;DHT22;18096;48.142;16.290;2023-03-25T18:15:53;11.20;91.20
14095;DHT22;18096;48.142;16.290;2023-03-25T18:18:25;11.10;91.30
14095;DHT22;18096;48.142;16.290;2023-03-25T18:20:52;11.10;91.50